Impacts TAF Board
For situational awareness. Not to be used for flight planning purposes.
IDs:

KGUC - Gunnison Arpt, CO, US

Issued at 1122 UTC 15 Jul 2020
Updated at 1244 UTC 15 Jul 2020
Potential Impact None Slight Moderate High
Time<<16/01Z 16/02Z 16/03Z 16/04Z 16/05Z 16/06Z 16/07Z 16/08Z 16/09Z 16/10Z 16/11Z 16/12Z 16/13Z>>
Type PRVL PRVL PRVL PRVL PRVL PRVL PRVL PRVL PRVL PRVL PRVL
VIS >6 >6 >6 >6 >6 >6 >6 >6 >6 >6 >6
CIG 100 -- -- -- -- -- -- -- -- -- --
Cover BKN SCT SCT SCT SCT SCT SCT SCT SCT SCT SCT
FltCat VFR VFR VFR VFR VFR VFR VFR VFR VFR VFR VFR
WX VCTS -- -- -- -- -- -- -- -- -- --
WDir 290 90 90 90 90 90 90 90 90 90 90
WSpd 9 6 6 6 6 6 6 6 6 6 6
WGst -- -- -- -- -- -- -- -- -- -- --
Raw TAF
KGUC 151122Z 1512/1612 VRB03KT P6SM FEW120
  FM152000 29009KT P6SM VCTS BKN100CB
  FM160200 09006KT P6SM FEW080 SCT200


METAR Board
Radar Display
Forecast Discussion
For situational awareness. Not to be used for flight planning purposes.